sensor_id;sensor_type;location;lat;lon;timestamp;pressure;altitude;pressure_sealevel;temperature;humidity
43436;BME280;36399;51.444;-2.018;2022-10-23T00:01:34;99634.19;;;13.19;100.00
43436;BME280;36399;51.444;-2.018;2022-10-23T00:04:04;99632.34;;;13.25;100.00
43436;BME280;36399;51.444;-2.018;2022-10-23T00:06:32;99628.06;;;13.17;100.00
43436;BME280;36399;51.444;-2.018;2022-10-23T00:09:00;99619.28;;;13.13;100.00
43436;BME280;36399;51.444;-2.018;2022-10-23T00:11:27;99618.38;;;13.14;100.00
43436;BME280;36399;51.444;-2.018;2022-10-23T00:13:56;99614.88;;;13.14;100.00
43436;BME280;36399;51.444;-2.018;2022-10-23T00:16:22;99614.97;;;13.06;100.00
43436;BME280;36399;51.444;-2.018;2022-10-23T00:18:48;99611.53;;;13.01;100.00
43436;BME280;36399;51.444;-2.018;2022-10-23T00:21:14;99599.22;;;12.97;100.00
43436;BME280;36399;51.444;-2.018;2022-10-23T00:23:41;99601.91;;;12.94;100.00
43436;BME280;36399;51.444;-2.018;2022-10-23T00:26:08;99594.03;;;12.91;100.00
43436;BME280;36399;51.444;-2.018;2022-10-23T00:28:36;99584.31;;;12.96;100.00
43436;BME280;36399;51.444;-2.018;2022-10-23T00:31:04;99570.91;;;13.20;100.00
43436;BME280;36399;51.444;-2.018;2022-10-23T00:33:31;99567.34;;;13.24;100.00
43436;BME280;36399;51.444;-2.018;2022-10-23T00:35:57;99574.19;;;13.39;100.00
43436;BME280;36399;51.444;-2.018;2022-10-23T00:38:23;99564.38;;;13.50;100.00
43436;BME280;36399;51.444;-2.018;2022-10-23T00:40:49;99555.44;;;13.62;100.00
43436;BME280;36399;51.444;-2.018;2022-10-23T00:43:27;99551.81;;;13.69;100.00
43436;BME280;36399;51.444;-2.018;2022-10-23T00:45:54;99550.84;;;13.76;100.00
43436;BME280;36399;51.444;-2.018;2022-10-23T00:48:20;99546.38;;;13.80;100.00
43436;BME280;36399;51.444;-2.018;2022-10-23T00:50:47;99545.31;;;13.92;100.00
43436;BME280;36399;51.444;-2.018;2022-10-23T00:53:14;99536.56;;;13.89;100.00
43436;BME280;36399;51.444;-2.018;2022-10-23T00:55:42;99531.97;;;14.01;100.00
43436;BME280;36399;51.444;-2.018;2022-10-23T00:58:13;99531.06;;;14.05;100.00
43436;BME280;36399;51.444;-2.018;2022-10-23T01:00:48;99537.16;;;14.08;100.00
43436;BME280;36399;51.444;-2.018;2022-10-23T01:03:17;99529.16;;;14.13;100.00
43436;BME280;36399;51.444;-2.018;2022-10-23T01:05:48;99534.41;;;14.16;100.00
43436;BME280;36399;51.444;-2.018;2022-10-23T01:08:30;99533.59;;;14.11;100.00
43436;BME280;36399;51.444;-2.018;2022-10-23T01:11:07;99532.72;;;14.12;100.00
43436;BME280;36399;51.444;-2.018;2022-10-23T01:19:02;99519.53;;;14.10;100.00
43436;BME280;36399;51.444;-2.018;2022-10-23T01:26:56;99507.31;;;14.03;100.00
43436;BME280;36399;51.444;-2.018;2022-10-23T01:29:38;99506.41;;;14.06;100.00
43436;BME280;36399;51.444;-2.018;2022-10-23T01:34:44;99494.25;;;13.96;100.00
43436;BME280;36399;51.444;-2.018;2022-10-23T01:37:13;99488.03;;;14.00;100.00
43436;BME280;36399;51.444;-2.018;2022-10-23T01:39:46;99492.69;;;13.82;100.00
43436;BME280;36399;51.444;-2.018;2022-10-23T01:42:20;99483.94;;;13.80;100.00
43436;BME280;36399;51.444;-2.018;2022-10-23T01:44:52;99474.34;;;13.76;100.00
43436;BME280;36399;51.444;-2.018;2022-10-23T01:47:26;99466.31;;;13.82;100.00
43436;BME280;36399;51.444;-2.018;2022-10-23T01:49:52;99463.75;;;13.79;100.00
43436;BME280;36399;51.444;-2.018;2022-10-23T01:52:20;99445.22;;;13.82;100.00
43436;BME280;36399;51.444;-2.018;2022-10-23T01:54:48;99443.44;;;13.84;100.00
43436;BME280;36399;51.444;-2.018;2022-10-23T01:57:17;99441.53;;;13.93;100.00
43436;BME280;36399;51.444;-2.018;2022-10-23T01:59:50;99430.91;;;13.96;100.00
43436;BME280;36399;51.444;-2.018;2022-10-23T02:02:19;99424.00;;;13.88;100.00
43436;BME280;36399;51.444;-2.018;2022-10-23T02:04:56;99430.97;;;13.93;100.00
43436;BME280;36399;51.444;-2.018;2022-10-23T02:07:24;99429.97;;;14.00;100.00
43436;BME280;36399;51.444;-2.018;2022-10-23T02:09:51;99405.50;;;13.90;100.00
43436;BME280;36399;51.444;-2.018;2022-10-23T02:12:46;99369.66;;;13.80;100.00
43436;BME280;36399;51.444;-2.018;2022-10-23T02:15:29;99339.81;;;13.76;100.00
43436;BME280;36399;51.444;-2.018;2022-10-23T02:20:56;99343.34;;;13.75;100.00
43436;BME280;36399;51.444;-2.018;2022-10-23T02:25:57;99381.84;;;13.85;100.00
43436;BME280;36399;51.444;-2.018;2022-10-23T02:28:31;99366.78;;;13.92;100.00
43436;BME280;36399;51.444;-2.018;2022-10-23T02:31:00;99375.69;;;13.86;100.00
43436;BME280;36399;51.444;-2.018;2022-10-23T02:33:29;99365.06;;;13.89;100.00
43436;BME280;36399;51.444;-2.018;2022-10-23T02:35:56;99344.91;;;13.85;100.00
43436;BME280;36399;51.444;-2.018;2022-10-23T02:41:46;99331.59;;;13.92;100.00
43436;BME280;36399;51.444;-2.018;2022-10-23T02:46:41;99329.09;;;13.85;100.00
43436;BME280;36399;51.444;-2.018;2022-10-23T02:49:15;99342.19;;;13.90;100.00
43436;BME280;36399;51.444;-2.018;2022-10-23T02:54:24;99338.59;;;13.94;100.00
43436;BME280;36399;51.444;-2.018;2022-10-23T02:59:42;99326.41;;;13.88;100.00
43436;BME280;36399;51.444;-2.018;2022-10-23T03:02:19;99316.63;;;13.94;100.00
43436;BME280;36399;51.444;-2.018;2022-10-23T03:04:46;99307.03;;;13.89;100.00
43436;BME280;36399;51.444;-2.018;2022-10-23T03:07:14;99299.03;;;13.94;100.00
43436;BME280;36399;51.444;-2.018;2022-10-23T03:09:40;99298.16;;;13.94;100.00
43436;BME280;36399;51.444;-2.018;2022-10-23T03:12:06;99289.50;;;13.87;100.00
43436;BME280;36399;51.444;-2.018;2022-10-23T03:14:32;99284.25;;;13.85;100.00
43436;BME280;36399;51.444;-2.018;2022-10-23T03:16:58;99263.97;;;13.87;100.00
43436;BME280;36399;51.444;-2.018;2022-10-23T03:19:24;99258.69;;;13.87;100.00
43436;BME280;36399;51.444;-2.018;2022-10-23T03:21:49;99254.34;;;13.85;100.00
43436;BME280;36399;51.444;-2.018;2022-10-23T03:24:15;99250.00;;;13.82;100.00
43436;BME280;36399;51.444;-2.018;2022-10-23T03:26:41;99261.50;;;13.80;100.00
43436;BME280;36399;51.444;-2.018;2022-10-23T03:29:07;99250.84;;;13.84;100.00
43436;BME280;36399;51.444;-2.018;2022-10-23T03:31:33;99243.84;;;13.83;100.00
43436;BME280;36399;51.444;-2.018;2022-10-23T03:33:59;99243.06;;;13.78;100.00
43436;BME280;36399;51.444;-2.018;2022-10-23T03:36:25;99229.13;;;13.72;100.00
43436;BME280;36399;51.444;-2.018;2022-10-23T03:38:52;99215.72;;;13.82;100.00
43436;BME280;36399;51.444;-2.018;2022-10-23T03:41:17;99211.50;;;13.74;100.00
43436;BME280;36399;51.444;-2.018;2022-10-23T03:43:43;99210.63;;;13.73;100.00
43436;BME280;36399;51.444;-2.018;2022-10-23T03:46:09;99206.94;;;13.82;100.00
43436;BME280;36399;51.444;-2.018;2022-10-23T03:48:37;99197.28;;;13.81;100.00
43436;BME280;36399;51.444;-2.018;2022-10-23T03:51:05;99195.63;;;13.75;100.00
43436;BME280;36399;51.444;-2.018;2022-10-23T03:53:31;99194.75;;;13.76;100.00
43436;BME280;36399;51.444;-2.018;2022-10-23T03:55:57;99187.69;;;13.77;100.00
43436;BME280;36399;51.444;-2.018;2022-10-23T03:58:23;99183.34;;;13.74;100.00
43436;BME280;36399;51.444;-2.018;2022-10-23T04:00:49;99181.69;;;13.70;100.00
43436;BME280;36399;51.444;-2.018;2022-10-23T04:03:15;99190.44;;;13.72;100.00
43436;BME280;36399;51.444;-2.018;2022-10-23T04:05:41;99186.72;;;13.81;100.00
43436;BME280;36399;51.444;-2.018;2022-10-23T04:08:07;99197.47;;;13.72;100.00
43436;BME280;36399;51.444;-2.018;2022-10-23T04:10:33;99202.72;;;13.73;100.00
43436;BME280;36399;51.444;-2.018;2022-10-23T04:12:59;99202.81;;;13.69;100.00
43436;BME280;36399;51.444;-2.018;2022-10-23T04:15:25;99189.69;;;13.66;100.00
43436;BME280;36399;51.444;-2.018;2022-10-23T04:17:51;99186.06;;;13.71;100.00
43436;BME280;36399;51.444;-2.018;2022-10-23T04:20:17;99187.16;;;13.61;100.00
43436;BME280;36399;51.444;-2.018;2022-10-23T04:22:43;99195.78;;;13.69;100.00
43436;BME280;36399;51.444;-2.018;2022-10-23T04:25:09;99185.28;;;13.66;100.00
43436;BME280;36399;51.444;-2.018;2022-10-23T04:27:35;99189.66;;;13.67;100.00
43436;BME280;36399;51.444;-2.018;2022-10-23T04:30:01;99198.47;;;13.66;100.00
43436;BME280;36399;51.444;-2.018;2022-10-23T04:32:28;99198.59;;;13.60;100.00
43436;BME280;36399;51.444;-2.018;2022-10-23T04:34:54;99209.84;;;13.68;100.00
43436;BME280;36399;51.444;-2.018;2022-10-23T04:37:20;99200.97;;;13.72;100.00
43436;BME280;36399;51.444;-2.018;2022-10-23T04:39:46;99190.44;;;13.72;100.00
43436;BME280;36399;51.444;-2.018;2022-10-23T04:42:12;99194.94;;;13.67;100.00
43436;BME280;36399;51.444;-2.018;2022-10-23T04:44:37;99184.28;;;13.72;100.00
43436;BME280;36399;51.444;-2.018;2022-10-23T04:47:03;99193.00;;;13.75;100.00
43436;BME280;36399;51.444;-2.018;2022-10-23T04:49:32;99183.41;;;13.71;100.00
43436;BME280;36399;51.444;-2.018;2022-10-23T04:51:59;99175.47;;;13.73;100.00
43436;BME280;36399;51.444;-2.018;2022-10-23T04:54:25;99177.28;;;13.71;100.00
43436;BME280;36399;51.444;-2.018;2022-10-23T04:56:51;99146.34;;;13.79;100.00
43436;BME280;36399;51.444;-2.018;2022-10-23T04:59:17;99142.88;;;13.75;100.00
43436;BME280;36399;51.444;-2.018;2022-10-23T05:01:43;99144.56;;;13.79;100.00
43436;BME280;36399;51.444;-2.018;2022-10-23T05:04:09;99144.78;;;13.69;100.00
43436;BME280;36399;51.444;-2.018;2022-10-23T05:06:35;99137.81;;;13.66;100.00
43436;BME280;36399;51.444;-2.018;2022-10-23T05:09:00;99130.94;;;13.59;100.00
43436;BME280;36399;51.444;-2.018;2022-10-23T05:11:26;99131.91;;;13.55;100.00
43436;BME280;36399;51.444;-2.018;2022-10-23T05:13:52;99140.66;;;13.57;100.00
43436;BME280;36399;51.444;-2.018;2022-10-23T05:16:30;99154.72;;;13.56;100.00
43436;BME280;36399;51.444;-2.018;2022-10-23T05:18:57;99159.13;;;13.55;100.00
43436;BME280;36399;51.444;-2.018;2022-10-23T05:21:26;99165.28;;;13.56;100.00
43436;BME280;36399;51.444;-2.018;2022-10-23T05:23:54;99158.31;;;13.50;100.00
43436;BME280;36399;51.444;-2.018;2022-10-23T05:26:20;99162.66;;;13.54;100.00
43436;BME280;36399;51.444;-2.018;2022-10-23T05:28:47;99156.44;;;13.58;100.00
43436;BME280;36399;51.444;-2.018;2022-10-23T05:31:14;99154.53;;;13.65;100.00
43436;BME280;36399;51.444;-2.018;2022-10-23T05:33:40;99141.47;;;13.59;100.00
43436;BME280;36399;51.444;-2.018;2022-10-23T05:36:07;99141.34;;;13.65;100.00
43436;BME280;36399;51.444;-2.018;2022-10-23T05:38:34;99142.09;;;13.72;100.00
43436;BME280;36399;51.444;-2.018;2022-10-23T05:41:00;99142.19;;;13.67;100.00
43436;BME280;36399;51.444;-2.018;2022-10-23T05:43:26;99150.03;;;13.70;100.00
43436;BME280;36399;51.444;-2.018;2022-10-23T05:45:56;99135.16;;;13.68;100.00
43436;BME280;36399;51.444;-2.018;2022-10-23T05:48:23;99136.78;;;13.73;100.00
43436;BME280;36399;51.444;-2.018;2022-10-23T05:50:48;99131.63;;;13.67;100.00
43436;BME280;36399;51.444;-2.018;2022-10-23T05:53:14;99121.16;;;13.64;100.00
43436;BME280;36399;51.444;-2.018;2022-10-23T05:55:40;99119.44;;;13.62;100.00
43436;BME280;36399;51.444;-2.018;2022-10-23T05:58:06;99109.78;;;13.62;100.00
43436;BME280;36399;51.444;-2.018;2022-10-23T06:00:32;99093.78;;;13.70;100.00
43436;BME280;36399;51.444;-2.018;2022-10-23T06:02:59;99102.72;;;13.63;100.00
43436;BME280;36399;51.444;-2.018;2022-10-23T06:05:25;99103.53;;;13.66;100.00
43436;BME280;36399;51.444;-2.018;2022-10-23T06:07:51;99094.09;;;13.56;100.00
43436;BME280;36399;51.444;-2.018;2022-10-23T06:10:17;99101.16;;;13.52;100.00
43436;BME280;36399;51.444;-2.018;2022-10-23T06:12:43;99090.81;;;13.43;100.00
43436;BME280;36399;51.444;-2.018;2022-10-23T06:15:09;99083.78;;;13.44;100.00
43436;BME280;36399;51.444;-2.018;2022-10-23T06:17:35;99082.88;;;13.45;100.00
43436;BME280;36399;51.444;-2.018;2022-10-23T06:20:01;99072.31;;;13.45;100.00
43436;BME280;36399;51.444;-2.018;2022-10-23T06:22:30;99076.69;;;13.46;100.00
43436;BME280;36399;51.444;-2.018;2022-10-23T06:24:56;99069.75;;;13.42;100.00
43436;BME280;36399;51.444;-2.018;2022-10-23T06:27:22;99061.84;;;13.42;100.00
43436;BME280;36399;51.444;-2.018;2022-10-23T06:29:48;99059.22;;;13.42;100.00
43436;BME280;36399;51.444;-2.018;2022-10-23T06:32:14;99074.09;;;13.44;100.00
43436;BME280;36399;51.444;-2.018;2022-10-23T06:34:40;99125.81;;;13.50;100.00
43436;BME280;36399;51.444;-2.018;2022-10-23T06:37:06;99183.78;;;13.53;100.00
43436;BME280;36399;51.444;-2.018;2022-10-23T06:39:32;99222.38;;;13.57;100.00
43436;BME280;36399;51.444;-2.018;2022-10-23T06:41:58;99250.06;;;13.32;100.00
43436;BME280;36399;51.444;-2.018;2022-10-23T06:44:23;99220.47;;;13.17;100.00
43436;BME280;36399;51.444;-2.018;2022-10-23T06:46:49;99215.84;;;12.76;100.00
43436;BME280;36399;51.444;-2.018;2022-10-23T06:49:16;99190.72;;;12.55;100.00
43436;BME280;36399;51.444;-2.018;2022-10-23T06:51:42;99164.50;;;12.49;100.00
43436;BME280;36399;51.444;-2.018;2022-10-23T06:54:09;99118.88;;;12.47;100.00
43436;BME280;36399;51.444;-2.018;2022-10-23T06:56:36;99114.59;;;12.42;100.00
43436;BME280;36399;51.444;-2.018;2022-10-23T06:59:02;99090.09;;;12.37;100.00
43436;BME280;36399;51.444;-2.018;2022-10-23T07:01:28;99082.28;;;12.32;100.00
43436;BME280;36399;51.444;-2.018;2022-10-23T07:03:54;99084.97;;;12.29;100.00
43436;BME280;36399;51.444;-2.018;2022-10-23T07:06:20;99079.78;;;12.24;100.00
43436;BME280;36399;51.444;-2.018;2022-10-23T07:08:46;99036.75;;;12.27;100.00
43436;BME280;36399;51.444;-2.018;2022-10-23T07:11:12;99009.53;;;12.29;100.00
43436;BME280;36399;51.444;-2.018;2022-10-23T07:13:38;99008.72;;;12.26;100.00
43436;BME280;36399;51.444;-2.018;2022-10-23T07:16:14;98991.09;;;12.31;100.00
43436;BME280;36399;51.444;-2.018;2022-10-23T07:18:40;98990.91;;;12.40;100.00
43436;BME280;36399;51.444;-2.018;2022-10-23T07:21:07;98968.84;;;12.47;100.00
43436;BME280;36399;51.444;-2.018;2022-10-23T07:23:33;98947.78;;;12.47;100.00
43436;BME280;36399;51.444;-2.018;2022-10-23T07:26:13;98978.53;;;12.45;100.00
43436;BME280;36399;51.444;-2.018;2022-10-23T07:28:41;98985.50;;;12.49;100.00
43436;BME280;36399;51.444;-2.018;2022-10-23T07:31:07;98994.31;;;12.45;100.00
43436;BME280;36399;51.444;-2.018;2022-10-23T07:33:34;99006.56;;;12.48;100.00
43436;BME280;36399;51.444;-2.018;2022-10-23T07:36:00;99001.41;;;12.42;100.00
43436;BME280;36399;51.444;-2.018;2022-10-23T07:38:26;98988.34;;;12.37;100.00
43436;BME280;36399;51.444;-2.018;2022-10-23T07:40:52;98988.41;;;12.34;100.00
43436;BME280;36399;51.444;-2.018;2022-10-23T07:43:18;98979.53;;;12.40;100.00
43436;BME280;36399;51.444;-2.018;2022-10-23T07:45:46;98967.25;;;12.39;100.00
43436;BME280;36399;51.444;-2.018;2022-10-23T07:48:13;98982.25;;;12.35;100.00
43436;BME280;36399;51.444;-2.018;2022-10-23T07:50:39;98998.91;;;12.34;100.00
43436;BME280;36399;51.444;-2.018;2022-10-23T07:53:04;99002.34;;;12.39;100.00
43436;BME280;36399;51.444;-2.018;2022-10-23T07:55:30;99000.50;;;12.43;100.00
43436;BME280;36399;51.444;-2.018;2022-10-23T07:57:56;99001.31;;;12.46;100.00
43436;BME280;36399;51.444;-2.018;2022-10-23T08:00:23;99029.38;;;12.47;100.00
43436;BME280;36399;51.444;-2.018;2022-10-23T08:02:48;99020.56;;;12.51;100.00
43436;BME280;36399;51.444;-2.018;2022-10-23T08:05:18;99029.38;;;12.47;100.00
43436;BME280;36399;51.444;-2.018;2022-10-23T08:07:45;99030.22;;;12.51;100.00
43436;BME280;36399;51.444;-2.018;2022-10-23T08:10:11;99034.09;;;12.78;100.00
43436;BME280;36399;51.444;-2.018;2022-10-23T08:12:37;99040.25;;;12.78;100.00
43436;BME280;36399;51.444;-2.018;2022-10-23T08:15:03;99025.31;;;12.79;100.00
43436;BME280;36399;51.444;-2.018;2022-10-23T08:17:29;99033.25;;;12.77;100.00
43436;BME280;36399;51.444;-2.018;2022-10-23T08:19:55;99049.81;;;12.82;100.00
43436;BME280;36399;51.444;-2.018;2022-10-23T08:22:21;99049.06;;;12.76;100.00
43436;BME280;36399;51.444;-2.018;2022-10-23T08:24:47;99053.25;;;12.86;100.00
43436;BME280;36399;51.444;-2.018;2022-10-23T08:27:13;99055.88;;;12.87;100.00
43436;BME280;36399;51.444;-2.018;2022-10-23T08:29:39;99063.84;;;12.83;100.00
43436;BME280;36399;51.444;-2.018;2022-10-23T08:32:05;99052.56;;;12.76;100.00
43436;BME280;36399;51.444;-2.018;2022-10-23T08:34:31;99068.34;;;12.78;100.00
43436;BME280;36399;51.444;-2.018;2022-10-23T08:36:57;99071.25;;;12.62;100.00
43436;BME280;36399;51.444;-2.018;2022-10-23T08:39:22;99059.03;;;12.58;100.00
43436;BME280;36399;51.444;-2.018;2022-10-23T08:41:50;99039.72;;;12.59;100.00
43436;BME280;36399;51.444;-2.018;2022-10-23T08:46:46;98998.69;;;12.46;100.00
43436;BME280;36399;51.444;-2.018;2022-10-23T08:51:53;98939.72;;;12.58;100.00
43436;BME280;36399;51.444;-2.018;2022-10-23T08:54:27;98869.97;;;12.77;100.00
43436;BME280;36399;51.444;-2.018;2022-10-23T08:57:12;98833.38;;;13.05;100.00
43436;BME280;36399;51.444;-2.018;2022-10-23T08:59:51;98830.25;;;13.26;100.00
43436;BME280;36399;51.444;-2.018;2022-10-23T09:04:51;98835.22;;;13.39;100.00
43436;BME280;36399;51.444;-2.018;2022-10-23T09:10:14;98895.63;;;13.48;100.00
43436;BME280;36399;51.444;-2.018;2022-10-23T09:12:45;98913.09;;;13.52;100.00
43436;BME280;36399;51.444;-2.018;2022-10-23T09:15:30;98922.47;;;13.65;100.00
43436;BME280;36399;51.444;-2.018;2022-10-23T09:18:03;98913.63;;;14.02;100.00
43436;BME280;36399;51.444;-2.018;2022-10-23T09:20:34;98904.66;;;14.43;100.00
43436;BME280;36399;51.444;-2.018;2022-10-23T09:23:03;98897.69;;;15.01;100.00
43436;BME280;36399;51.444;-2.018;2022-10-23T09:25:39;98892.38;;;16.37;100.00
43436;BME280;36399;51.444;-2.018;2022-10-23T09:28:10;98893.00;;;17.16;100.00
43436;BME280;36399;51.444;-2.018;2022-10-23T09:30:40;98909.38;;;18.35;100.00
43436;BME280;36399;51.444;-2.018;2022-10-23T09:33:14;98939.69;;;19.10;100.00
43436;BME280;36399;51.444;-2.018;2022-10-23T09:35:57;98916.47;;;19.14;100.00
43436;BME280;36399;51.444;-2.018;2022-10-23T09:41:42;98929.75;;;20.06;100.00
43436;BME280;36399;51.444;-2.018;2022-10-23T09:44:24;98935.75;;;19.38;100.00
43436;BME280;36399;51.444;-2.018;2022-10-23T09:46:57;98938.63;;;19.33;100.00
43436;BME280;36399;51.444;-2.018;2022-10-23T09:54:23;98975.88;;;20.95;100.00
43436;BME280;36399;51.444;-2.018;2022-10-23T09:56:52;98996.94;;;20.84;100.00
43436;BME280;36399;51.444;-2.018;2022-10-23T09:59:26;98998.66;;;20.50;100.00
43436;BME280;36399;51.444;-2.018;2022-10-23T10:01:58;98995.72;;;19.26;100.00
43436;BME280;36399;51.444;-2.018;2022-10-23T10:04:37;99004.56;;;18.45;100.00
43436;BME280;36399;51.444;-2.018;2022-10-23T10:07:05;98983.00;;;17.65;100.00
43436;BME280;36399;51.444;-2.018;2022-10-23T10:09:39;98974.06;;;16.99;100.00
43436;BME280;36399;51.444;-2.018;2022-10-23T10:23:05;98978.53;;;18.75;100.00
43436;BME280;36399;51.444;-2.018;2022-10-23T10:25:40;98988.53;;;19.28;100.00
43436;BME280;36399;51.444;-2.018;2022-10-23T10:34:11;98999.47;;;19.02;100.00
43436;BME280;36399;51.444;-2.018;2022-10-23T10:39:12;99017.19;;;18.82;100.00
43436;BME280;36399;51.444;-2.018;2022-10-23T10:50:16;99040.97;;;19.06;100.00
43436;BME280;36399;51.444;-2.018;2022-10-23T10:52:50;99038.59;;;19.00;100.00
43436;BME280;36399;51.444;-2.018;2022-10-23T10:55:41;99021.06;;;18.75;100.00
43436;BME280;36399;51.444;-2.018;2022-10-23T10:58:37;99025.22;;;18.39;100.00
43436;BME280;36399;51.444;-2.018;2022-10-23T11:01:09;99001.88;;;17.58;100.00
43436;BME280;36399;51.444;-2.018;2022-10-23T11:03:47;98995.25;;;17.24;100.00
43436;BME280;36399;51.444;-2.018;2022-10-23T11:06:17;98986.72;;;17.15;100.00
43436;BME280;36399;51.444;-2.018;2022-10-23T11:08:44;98969.53;;;17.26;100.00
43436;BME280;36399;51.444;-2.018;2022-10-23T11:11:20;98966.78;;;18.59;100.00
43436;BME280;36399;51.444;-2.018;2022-10-23T11:13:49;98990.56;;;19.98;100.00
43436;BME280;36399;51.444;-2.018;2022-10-23T11:16:23;98996.53;;;20.03;100.00
43436;BME280;36399;51.444;-2.018;2022-10-23T11:19:10;99000.00;;;20.23;100.00
43436;BME280;36399;51.444;-2.018;2022-10-23T11:27:31;99013.44;;;19.46;100.00
43436;BME280;36399;51.444;-2.018;2022-10-23T11:30:30;99008.00;;;19.68;100.00
43436;BME280;36399;51.444;-2.018;2022-10-23T11:33:23;99001.25;;;19.21;100.00
43436;BME280;36399;51.444;-2.018;2022-10-23T11:36:05;98993.66;;;18.94;100.00
43436;BME280;36399;51.444;-2.018;2022-10-23T11:38:39;98984.94;;;20.04;100.00
43436;BME280;36399;51.444;-2.018;2022-10-23T11:41:18;98986.41;;;20.10;100.00
43436;BME280;36399;51.444;-2.018;2022-10-23T11:43:58;98980.63;;;20.02;100.00
43436;BME280;36399;51.444;-2.018;2022-10-23T11:46:35;98970.72;;;19.68;100.00
43436;BME280;36399;51.444;-2.018;2022-10-23T11:49:03;98977.19;;;19.62;100.00
43436;BME280;36399;51.444;-2.018;2022-10-23T11:51:38;98982.88;;;19.54;100.00
43436;BME280;36399;51.444;-2.018;2022-10-23T11:56:38;98958.50;;;19.64;100.00
43436;BME280;36399;51.444;-2.018;2022-10-23T11:59:52;98964.38;;;19.70;100.00
43436;BME280;36399;51.444;-2.018;2022-10-23T12:02:35;98949.44;;;20.40;100.00
43436;BME280;36399;51.444;-2.018;2022-10-23T12:05:08;98944.75;;;21.76;100.00
43436;BME280;36399;51.444;-2.018;2022-10-23T12:07:53;98943.66;;;21.15;100.00
43436;BME280;36399;51.444;-2.018;2022-10-23T12:10:49;98933.75;;;21.34;100.00
43436;BME280;36399;51.444;-2.018;2022-10-23T12:16:03;98936.59;;;21.14;100.00
43436;BME280;36399;51.444;-2.018;2022-10-23T12:18:30;98944.84;;;22.06;100.00
43436;BME280;36399;51.444;-2.018;2022-10-23T12:23:40;98943.03;;;22.06;100.00
43436;BME280;36399;51.444;-2.018;2022-10-23T12:31:49;98938.53;;;20.77;100.00
43436;BME280;36399;51.444;-2.018;2022-10-23T12:37:49;98921.50;;;20.30;100.00
43436;BME280;36399;51.444;-2.018;2022-10-23T12:40:19;98908.63;;;20.38;100.00
43436;BME280;36399;51.444;-2.018;2022-10-23T12:42:53;98907.47;;;19.73;100.00
43436;BME280;36399;51.444;-2.018;2022-10-23T12:45:26;98896.22;;;20.02;100.00
43436;BME280;36399;51.444;-2.018;2022-10-23T12:47:53;98888.22;;;20.20;100.00
43436;BME280;36399;51.444;-2.018;2022-10-23T12:50:27;98885.25;;;20.08;100.00
43436;BME280;36399;51.444;-2.018;2022-10-23T12:53:00;98885.91;;;20.31;100.00
43436;BME280;36399;51.444;-2.018;2022-10-23T12:55:29;98876.44;;;21.24;100.00
43436;BME280;36399;51.444;-2.018;2022-10-23T12:57:56;98882.19;;;21.01;100.00
43436;BME280;36399;51.444;-2.018;2022-10-23T13:00:24;98873.31;;;20.67;100.00
43436;BME280;36399;51.444;-2.018;2022-10-23T13:03:01;98862.16;;;20.76;100.00
43436;BME280;36399;51.444;-2.018;2022-10-23T13:05:29;98861.44;;;20.23;100.00
43436;BME280;36399;51.444;-2.018;2022-10-23T13:07:57;98847.47;;;19.66;100.00
43436;BME280;36399;51.444;-2.018;2022-10-23T13:10:24;98840.94;;;19.54;100.00
43436;BME280;36399;51.444;-2.018;2022-10-23T13:13:04;98827.34;;;20.46;100.00
43436;BME280;36399;51.444;-2.018;2022-10-23T13:15:42;98824.50;;;20.83;100.00
43436;BME280;36399;51.444;-2.018;2022-10-23T13:18:10;98806.31;;;20.73;100.00
43436;BME280;36399;51.444;-2.018;2022-10-23T13:25:57;98792.72;;;20.12;100.00
43436;BME280;36399;51.444;-2.018;2022-10-23T13:28:32;98796.25;;;20.12;100.00
43436;BME280;36399;51.444;-2.018;2022-10-23T13:33:36;98799.84;;;20.11;100.00
43436;BME280;36399;51.444;-2.018;2022-10-23T13:36:21;98800.50;;;19.82;100.00
43436;BME280;36399;51.444;-2.018;2022-10-23T13:41:38;98780.16;;;19.28;100.00
43436;BME280;36399;51.444;-2.018;2022-10-23T13:44:05;98781.59;;;19.16;100.00
43436;BME280;36399;51.444;-2.018;2022-10-23T13:46:31;98776.31;;;18.78;100.00
43436;BME280;36399;51.444;-2.018;2022-10-23T13:48:57;98775.00;;;19.06;100.00
43436;BME280;36399;51.444;-2.018;2022-10-23T13:51:26;98769.28;;;19.49;100.00
43436;BME280;36399;51.444;-2.018;2022-10-23T13:53:54;98768.66;;;19.44;100.00
43436;BME280;36399;51.444;-2.018;2022-10-23T13:56:22;98758.63;;;18.96;100.00
43436;BME280;36399;51.444;-2.018;2022-10-23T13:58:48;98759.34;;;18.62;100.00
43436;BME280;36399;51.444;-2.018;2022-10-23T14:01:28;98753.44;;;18.37;100.00
43436;BME280;36399;51.444;-2.018;2022-10-23T14:03:56;98739.66;;;18.28;100.00
43436;BME280;36399;51.444;-2.018;2022-10-23T14:06:23;98740.59;;;18.07;100.00
43436;BME280;36399;51.444;-2.018;2022-10-23T14:08:49;98729.69;;;18.13;100.00
43436;BME280;36399;51.444;-2.018;2022-10-23T14:11:16;98734.19;;;17.92;100.00
43436;BME280;36399;51.444;-2.018;2022-10-23T14:13:42;98725.03;;;17.79;100.00
43436;BME280;36399;51.444;-2.018;2022-10-23T14:16:10;98731.97;;;17.61;100.00
43436;BME280;36399;51.444;-2.018;2022-10-23T14:18:37;98734.94;;;17.54;100.00
43436;BME280;36399;51.444;-2.018;2022-10-23T14:21:05;98730.56;;;17.32;100.00
43436;BME280;36399;51.444;-2.018;2022-10-23T14:23:31;98719.63;;;17.20;100.00
43436;BME280;36399;51.444;-2.018;2022-10-23T14:26:05;98721.47;;;17.18;100.00
43436;BME280;36399;51.444;-2.018;2022-10-23T14:28:32;98704.06;;;17.11;100.00
43436;BME280;36399;51.444;-2.018;2022-10-23T14:31:06;98693.00;;;16.79;100.00
43436;BME280;36399;51.444;-2.018;2022-10-23T14:33:32;98677.22;;;16.76;100.00
43436;BME280;36399;51.444;-2.018;2022-10-23T14:35:58;98670.09;;;16.55;100.00
43436;BME280;36399;51.444;-2.018;2022-10-23T14:38:24;98651.22;;;16.19;100.00
43436;BME280;36399;51.444;-2.018;2022-10-23T14:40:50;98641.09;;;15.83;100.00
43436;BME280;36399;51.444;-2.018;2022-10-23T14:43:16;98622.63;;;15.57;100.00